sensor_id;sensor_type;location;lat;lon;timestamp;P1;durP1;ratioP1;P2;durP2;ratioP2
9904;SDS011;4991;43.566;27.820;2023-04-24T00:00:13;31.47;;;9.70;;
9904;SDS011;4991;43.566;27.820;2023-04-24T00:02:40;23.87;;;8.97;;
9904;SDS011;4991;43.566;27.820;2023-04-24T00:05:11;15.87;;;9.43;;
9904;SDS011;4991;43.566;27.820;2023-04-24T00:07:38;60.87;;;11.87;;
9904;SDS011;4991;43.566;27.820;2023-04-24T00:10:03;165.07;;;25.67;;
9904;SDS011;4991;43.566;27.820;2023-04-24T00:12:30;76.93;;;14.57;;
9904;SDS011;4991;43.566;27.820;2023-04-24T00:14:56;60.07;;;12.87;;
9904;SDS011;4991;43.566;27.820;2023-04-24T00:17:21;23.13;;;9.40;;
9904;SDS011;4991;43.566;27.820;2023-04-24T00:19:47;23.90;;;8.73;;
9904;SDS011;4991;43.566;27.820;2023-04-24T00:22:13;12.57;;;8.13;;
9904;SDS011;4991;43.566;27.820;2023-04-24T00:24:40;14.47;;;7.37;;
9904;SDS011;4991;43.566;27.820;2023-04-24T00:27:06;14.50;;;7.47;;
9904;SDS011;4991;43.566;27.820;2023-04-24T00:29:31;12.20;;;6.77;;
9904;SDS011;4991;43.566;27.820;2023-04-24T00:31:57;7.97;;;5.70;;
9904;SDS011;4991;43.566;27.820;2023-04-24T00:34:22;9.53;;;5.90;;
9904;SDS011;4991;43.566;27.820;2023-04-24T00:36:48;11.10;;;6.27;;
9904;SDS011;4991;43.566;27.820;2023-04-24T00:39:20;8.13;;;6.00;;
9904;SDS011;4991;43.566;27.820;2023-04-24T00:41:46;6.53;;;5.53;;
9904;SDS011;4991;43.566;27.820;2023-04-24T00:44:13;11.47;;;6.10;;
9904;SDS011;4991;43.566;27.820;2023-04-24T00:46:39;9.23;;;6.40;;
9904;SDS011;4991;43.566;27.820;2023-04-24T00:49:05;11.67;;;6.33;;
9904;SDS011;4991;43.566;27.820;2023-04-24T00:51:31;11.00;;;6.17;;
9904;SDS011;4991;43.566;27.820;2023-04-24T00:53:58;11.23;;;6.27;;
9904;SDS011;4991;43.566;27.820;2023-04-24T00:56:24;11.20;;;6.10;;
9904;SDS011;4991;43.566;27.820;2023-04-24T00:58:50;12.23;;;6.00;;
9904;SDS011;4991;43.566;27.820;2023-04-24T01:01:16;8.73;;;6.30;;
9904;SDS011;4991;43.566;27.820;2023-04-24T01:03:46;14.57;;;6.47;;
9904;SDS011;4991;43.566;27.820;2023-04-24T01:06:12;12.00;;;6.67;;
9904;SDS011;4991;43.566;27.820;2023-04-24T01:08:39;12.50;;;5.93;;
9904;SDS011;4991;43.566;27.820;2023-04-24T01:11:06;8.00;;;5.50;;
9904;SDS011;4991;43.566;27.820;2023-04-24T01:13:32;11.67;;;6.00;;
9904;SDS011;4991;43.566;27.820;2023-04-24T01:15:59;9.50;;;6.37;;
9904;SDS011;4991;43.566;27.820;2023-04-24T01:18:25;10.90;;;6.27;;
9904;SDS011;4991;43.566;27.820;2023-04-24T01:20:54;8.33;;;5.83;;
9904;SDS011;4991;43.566;27.820;2023-04-24T01:23:23;11.93;;;6.20;;
9904;SDS011;4991;43.566;27.820;2023-04-24T01:25:49;9.30;;;5.73;;
9904;SDS011;4991;43.566;27.820;2023-04-24T01:28:16;10.60;;;5.27;;
9904;SDS011;4991;43.566;27.820;2023-04-24T01:30:42;9.83;;;5.87;;
9904;SDS011;4991;43.566;27.820;2023-04-24T01:33:09;8.37;;;5.83;;
9904;SDS011;4991;43.566;27.820;2023-04-24T01:35:35;7.30;;;6.00;;
9904;SDS011;4991;43.566;27.820;2023-04-24T01:38:02;8.13;;;5.73;;
9904;SDS011;4991;43.566;27.820;2023-04-24T01:40:28;9.97;;;5.93;;
9904;SDS011;4991;43.566;27.820;2023-04-24T01:42:54;15.27;;;6.27;;
9904;SDS011;4991;43.566;27.820;2023-04-24T01:45:20;11.03;;;5.73;;
9904;SDS011;4991;43.566;27.820;2023-04-24T01:47:45;11.77;;;6.13;;
9904;SDS011;4991;43.566;27.820;2023-04-24T01:50:12;13.93;;;6.10;;
9904;SDS011;4991;43.566;27.820;2023-04-24T01:52:37;11.77;;;6.07;;
9904;SDS011;4991;43.566;27.820;2023-04-24T01:55:03;10.43;;;6.80;;
9904;SDS011;4991;43.566;27.820;2023-04-24T01:57:30;9.00;;;6.00;;
9904;SDS011;4991;43.566;27.820;2023-04-24T01:59:56;13.70;;;7.07;;
9904;SDS011;4991;43.566;27.820;2023-04-24T02:02:22;24.33;;;8.17;;
9904;SDS011;4991;43.566;27.820;2023-04-24T02:04:55;24.63;;;8.77;;
9904;SDS011;4991;43.566;27.820;2023-04-24T02:07:20;21.50;;;8.00;;
9904;SDS011;4991;43.566;27.820;2023-04-24T02:09:46;17.53;;;7.07;;
9904;SDS011;4991;43.566;27.820;2023-04-24T02:12:12;11.80;;;6.50;;
9904;SDS011;4991;43.566;27.820;2023-04-24T02:14:38;10.70;;;6.20;;
9904;SDS011;4991;43.566;27.820;2023-04-24T02:17:04;12.50;;;6.67;;
9904;SDS011;4991;43.566;27.820;2023-04-24T02:19:30;13.63;;;6.70;;
9904;SDS011;4991;43.566;27.820;2023-04-24T02:21:56;10.13;;;7.23;;
9904;SDS011;4991;43.566;27.820;2023-04-24T02:24:21;15.27;;;7.17;;
9904;SDS011;4991;43.566;27.820;2023-04-24T02:26:47;11.70;;;6.90;;
9904;SDS011;4991;43.566;27.820;2023-04-24T02:29:12;19.17;;;7.80;;
9904;SDS011;4991;43.566;27.820;2023-04-24T02:31:38;17.90;;;10.17;;
9904;SDS011;4991;43.566;27.820;2023-04-24T02:34:04;26.23;;;14.03;;
9904;SDS011;4991;43.566;27.820;2023-04-24T02:36:29;27.63;;;14.27;;
9904;SDS011;4991;43.566;27.820;2023-04-24T02:38:55;17.77;;;9.00;;
9904;SDS011;4991;43.566;27.820;2023-04-24T02:41:21;19.50;;;8.97;;
9904;SDS011;4991;43.566;27.820;2023-04-24T02:43:47;13.80;;;8.73;;
9904;SDS011;4991;43.566;27.820;2023-04-24T02:46:12;14.10;;;10.20;;
9904;SDS011;4991;43.566;27.820;2023-04-24T02:48:38;12.83;;;8.20;;
9904;SDS011;4991;43.566;27.820;2023-04-24T02:51:04;10.63;;;7.37;;
9904;SDS011;4991;43.566;27.820;2023-04-24T02:53:30;11.77;;;8.20;;
9904;SDS011;4991;43.566;27.820;2023-04-24T02:55:56;13.57;;;10.57;;
9904;SDS011;4991;43.566;27.820;2023-04-24T02:58:21;9.30;;;8.03;;
9904;SDS011;4991;43.566;27.820;2023-04-24T03:00:47;18.97;;;8.97;;
9904;SDS011;4991;43.566;27.820;2023-04-24T03:03:13;13.27;;;8.40;;
9904;SDS011;4991;43.566;27.820;2023-04-24T03:05:40;16.27;;;8.57;;
9904;SDS011;4991;43.566;27.820;2023-04-24T03:08:05;14.37;;;8.50;;
9904;SDS011;4991;43.566;27.820;2023-04-24T03:10:31;18.60;;;8.60;;
9904;SDS011;4991;43.566;27.820;2023-04-24T03:12:57;22.80;;;9.80;;
9904;SDS011;4991;43.566;27.820;2023-04-24T03:15:22;33.47;;;11.27;;
9904;SDS011;4991;43.566;27.820;2023-04-24T03:17:48;27.67;;;10.73;;
9904;SDS011;4991;43.566;27.820;2023-04-24T03:20:14;21.77;;;9.03;;
9904;SDS011;4991;43.566;27.820;2023-04-24T03:22:40;14.07;;;10.13;;
9904;SDS011;4991;43.566;27.820;2023-04-24T03:25:05;21.30;;;10.90;;
9904;SDS011;4991;43.566;27.820;2023-04-24T03:27:33;23.70;;;12.13;;
9904;SDS011;4991;43.566;27.820;2023-04-24T03:29:58;17.87;;;8.30;;
9904;SDS011;4991;43.566;27.820;2023-04-24T03:32:25;14.23;;;7.67;;
9904;SDS011;4991;43.566;27.820;2023-04-24T03:34:50;17.50;;;8.10;;
9904;SDS011;4991;43.566;27.820;2023-04-24T03:37:16;15.83;;;8.43;;
9904;SDS011;4991;43.566;27.820;2023-04-24T03:39:42;15.07;;;8.30;;
9904;SDS011;4991;43.566;27.820;2023-04-24T03:42:08;11.53;;;6.80;;
9904;SDS011;4991;43.566;27.820;2023-04-24T03:44:34;16.43;;;8.30;;
9904;SDS011;4991;43.566;27.820;2023-04-24T03:47:00;19.07;;;7.47;;
9904;SDS011;4991;43.566;27.820;2023-04-24T03:49:25;13.73;;;7.77;;
9904;SDS011;4991;43.566;27.820;2023-04-24T03:51:51;20.73;;;8.30;;
9904;SDS011;4991;43.566;27.820;2023-04-24T03:54:18;14.60;;;7.87;;
9904;SDS011;4991;43.566;27.820;2023-04-24T03:56:44;26.13;;;7.73;;
9904;SDS011;4991;43.566;27.820;2023-04-24T03:59:10;17.17;;;8.00;;
9904;SDS011;4991;43.566;27.820;2023-04-24T04:01:36;21.03;;;7.77;;
9904;SDS011;4991;43.566;27.820;2023-04-24T04:04:03;14.17;;;7.23;;
9904;SDS011;4991;43.566;27.820;2023-04-24T04:06:29;15.17;;;7.97;;
9904;SDS011;4991;43.566;27.820;2023-04-24T04:08:56;22.10;;;9.27;;
9904;SDS011;4991;43.566;27.820;2023-04-24T04:11:22;22.03;;;8.33;;
9904;SDS011;4991;43.566;27.820;2023-04-24T04:13:48;23.23;;;8.37;;
9904;SDS011;4991;43.566;27.820;2023-04-24T04:16:14;9.20;;;6.43;;
9904;SDS011;4991;43.566;27.820;2023-04-24T04:18:42;11.23;;;6.00;;
9904;SDS011;4991;43.566;27.820;2023-04-24T04:21:08;17.73;;;7.93;;
9904;SDS011;4991;43.566;27.820;2023-04-24T04:23:33;22.43;;;10.90;;
9904;SDS011;4991;43.566;27.820;2023-04-24T04:25:59;22.00;;;10.27;;
9904;SDS011;4991;43.566;27.820;2023-04-24T04:28:25;18.97;;;9.50;;
9904;SDS011;4991;43.566;27.820;2023-04-24T04:30:51;25.60;;;10.00;;
9904;SDS011;4991;43.566;27.820;2023-04-24T04:33:20;14.10;;;8.70;;
9904;SDS011;4991;43.566;27.820;2023-04-24T04:35:47;10.07;;;6.63;;
9904;SDS011;4991;43.566;27.820;2023-04-24T04:38:21;9.27;;;6.40;;
9904;SDS011;4991;43.566;27.820;2023-04-24T04:40:47;11.07;;;6.00;;
9904;SDS011;4991;43.566;27.820;2023-04-24T04:43:13;13.07;;;8.63;;
9904;SDS011;4991;43.566;27.820;2023-04-24T04:45:40;13.90;;;9.03;;
9904;SDS011;4991;43.566;27.820;2023-04-24T04:48:08;11.47;;;7.07;;
9904;SDS011;4991;43.566;27.820;2023-04-24T04:50:34;14.30;;;8.43;;
9904;SDS011;4991;43.566;27.820;2023-04-24T04:53:00;22.90;;;11.47;;
9904;SDS011;4991;43.566;27.820;2023-04-24T04:55:26;26.13;;;13.37;;
9904;SDS011;4991;43.566;27.820;2023-04-24T04:57:52;17.03;;;8.23;;
9904;SDS011;4991;43.566;27.820;2023-04-24T05:00:18;11.83;;;6.03;;
9904;SDS011;4991;43.566;27.820;2023-04-24T05:02:44;11.77;;;6.70;;
9904;SDS011;4991;43.566;27.820;2023-04-24T05:05:10;13.87;;;5.87;;
9904;SDS011;4991;43.566;27.820;2023-04-24T05:07:35;12.20;;;5.27;;
9904;SDS011;4991;43.566;27.820;2023-04-24T05:10:01;11.07;;;5.80;;
9904;SDS011;4991;43.566;27.820;2023-04-24T05:12:26;11.43;;;5.40;;
9904;SDS011;4991;43.566;27.820;2023-04-24T05:14:52;9.20;;;5.57;;
9904;SDS011;4991;43.566;27.820;2023-04-24T05:17:18;7.07;;;4.50;;
9904;SDS011;4991;43.566;27.820;2023-04-24T05:19:44;10.43;;;5.53;;
9904;SDS011;4991;43.566;27.820;2023-04-24T05:22:10;10.50;;;5.30;;
9904;SDS011;4991;43.566;27.820;2023-04-24T05:24:36;12.27;;;5.40;;
9904;SDS011;4991;43.566;27.820;2023-04-24T05:27:02;13.27;;;5.53;;
9904;SDS011;4991;43.566;27.820;2023-04-24T05:29:30;19.57;;;5.60;;
9904;SDS011;4991;43.566;27.820;2023-04-24T05:31:58;8.27;;;4.90;;
9904;SDS011;4991;43.566;27.820;2023-04-24T05:34:25;9.70;;;4.57;;
9904;SDS011;4991;43.566;27.820;2023-04-24T05:36:51;7.83;;;4.40;;
9904;SDS011;4991;43.566;27.820;2023-04-24T05:39:17;7.40;;;4.20;;
9904;SDS011;4991;43.566;27.820;2023-04-24T05:41:43;6.57;;;4.20;;
9904;SDS011;4991;43.566;27.820;2023-04-24T05:44:08;12.83;;;4.63;;
9904;SDS011;4991;43.566;27.820;2023-04-24T05:46:34;10.17;;;4.17;;
9904;SDS011;4991;43.566;27.820;2023-04-24T05:49:00;9.87;;;4.57;;
9904;SDS011;4991;43.566;27.820;2023-04-24T05:51:25;10.73;;;4.23;;
9904;SDS011;4991;43.566;27.820;2023-04-24T05:53:51;6.50;;;3.73;;
9904;SDS011;4991;43.566;27.820;2023-04-24T05:56:17;11.13;;;4.57;;
9904;SDS011;4991;43.566;27.820;2023-04-24T05:58:43;9.90;;;4.87;;
9904;SDS011;4991;43.566;27.820;2023-04-24T06:01:09;7.23;;;4.37;;
9904;SDS011;4991;43.566;27.820;2023-04-24T06:03:34;11.30;;;5.27;;
9904;SDS011;4991;43.566;27.820;2023-04-24T06:06:00;9.10;;;4.67;;
9904;SDS011;4991;43.566;27.820;2023-04-24T06:08:26;8.70;;;4.53;;
9904;SDS011;4991;43.566;27.820;2023-04-24T06:10:51;9.77;;;4.97;;
9904;SDS011;4991;43.566;27.820;2023-04-24T06:13:17;7.77;;;4.57;;
9904;SDS011;4991;43.566;27.820;2023-04-24T06:15:43;8.90;;;4.37;;
9904;SDS011;4991;43.566;27.820;2023-04-24T06:18:08;10.70;;;4.53;;
9904;SDS011;4991;43.566;27.820;2023-04-24T06:20:35;7.70;;;4.00;;
9904;SDS011;4991;43.566;27.820;2023-04-24T06:23:01;8.50;;;4.50;;
9904;SDS011;4991;43.566;27.820;2023-04-24T06:25:27;12.70;;;5.97;;
9904;SDS011;4991;43.566;27.820;2023-04-24T06:27:54;9.17;;;5.07;;
9904;SDS011;4991;43.566;27.820;2023-04-24T06:30:20;12.40;;;6.57;;
9904;SDS011;4991;43.566;27.820;2023-04-24T06:32:45;8.67;;;5.00;;
9904;SDS011;4991;43.566;27.820;2023-04-24T06:35:11;9.27;;;5.93;;
9904;SDS011;4991;43.566;27.820;2023-04-24T06:37:39;10.57;;;4.77;;
9904;SDS011;4991;43.566;27.820;2023-04-24T06:40:06;7.20;;;4.33;;
9904;SDS011;4991;43.566;27.820;2023-04-24T06:42:32;7.67;;;4.20;;
9904;SDS011;4991;43.566;27.820;2023-04-24T06:44:57;8.60;;;4.47;;
9904;SDS011;4991;43.566;27.820;2023-04-24T06:47:23;5.87;;;3.80;;
9904;SDS011;4991;43.566;27.820;2023-04-24T06:49:48;7.37;;;4.03;;
9904;SDS011;4991;43.566;27.820;2023-04-24T06:52:16;9.40;;;4.07;;
9904;SDS011;4991;43.566;27.820;2023-04-24T06:54:41;6.43;;;4.10;;
9904;SDS011;4991;43.566;27.820;2023-04-24T06:57:08;8.23;;;4.43;;
9904;SDS011;4991;43.566;27.820;2023-04-24T06:59:33;6.57;;;4.47;;
9904;SDS011;4991;43.566;27.820;2023-04-24T07:01:59;7.20;;;4.40;;
9904;SDS011;4991;43.566;27.820;2023-04-24T07:04:25;7.00;;;4.20;;
9904;SDS011;4991;43.566;27.820;2023-04-24T07:06:51;5.37;;;4.00;;
9904;SDS011;4991;43.566;27.820;2023-04-24T07:09:16;7.10;;;4.30;;
9904;SDS011;4991;43.566;27.820;2023-04-24T07:11:44;7.40;;;4.13;;
9904;SDS011;4991;43.566;27.820;2023-04-24T07:14:10;10.10;;;4.40;;
9904;SDS011;4991;43.566;27.820;2023-04-24T07:16:36;8.47;;;4.43;;
9904;SDS011;4991;43.566;27.820;2023-04-24T07:19:02;9.63;;;4.63;;
9904;SDS011;4991;43.566;27.820;2023-04-24T07:21:27;8.37;;;4.50;;
9904;SDS011;4991;43.566;27.820;2023-04-24T07:23:56;6.30;;;3.83;;
9904;SDS011;4991;43.566;27.820;2023-04-24T07:26:22;6.77;;;4.83;;
9904;SDS011;4991;43.566;27.820;2023-04-24T07:28:48;9.90;;;4.47;;
9904;SDS011;4991;43.566;27.820;2023-04-24T07:31:13;5.70;;;3.87;;
9904;SDS011;4991;43.566;27.820;2023-04-24T07:33:39;6.93;;;4.17;;
9904;SDS011;4991;43.566;27.820;2023-04-24T07:36:05;8.43;;;4.53;;
9904;SDS011;4991;43.566;27.820;2023-04-24T07:38:31;5.03;;;3.70;;
9904;SDS011;4991;43.566;27.820;2023-04-24T07:40:57;7.80;;;4.57;;
9904;SDS011;4991;43.566;27.820;2023-04-24T07:43:23;8.13;;;4.53;;
9904;SDS011;4991;43.566;27.820;2023-04-24T07:45:51;8.63;;;4.73;;
9904;SDS011;4991;43.566;27.820;2023-04-24T07:48:17;5.77;;;4.10;;
9904;SDS011;4991;43.566;27.820;2023-04-24T07:50:43;6.43;;;4.47;;
9904;SDS011;4991;43.566;27.820;2023-04-24T07:53:09;6.87;;;4.33;;
9904;SDS011;4991;43.566;27.820;2023-04-24T07:55:35;9.80;;;4.50;;
9904;SDS011;4991;43.566;27.820;2023-04-24T07:58:01;6.07;;;4.20;;
9904;SDS011;4991;43.566;27.820;2023-04-24T08:00:27;9.80;;;5.07;;
9904;SDS011;4991;43.566;27.820;2023-04-24T08:02:52;10.53;;;4.20;;
9904;SDS011;4991;43.566;27.820;2023-04-24T08:05:18;5.93;;;4.33;;
9904;SDS011;4991;43.566;27.820;2023-04-24T08:07:45;9.10;;;4.53;;
9904;SDS011;4991;43.566;27.820;2023-04-24T08:10:13;13.97;;;4.80;;
9904;SDS011;4991;43.566;27.820;2023-04-24T08:12:40;7.97;;;4.53;;
9904;SDS011;4991;43.566;27.820;2023-04-24T08:15:06;6.07;;;4.13;;
9904;SDS011;4991;43.566;27.820;2023-04-24T08:17:33;9.23;;;4.60;;
9904;SDS011;4991;43.566;27.820;2023-04-24T08:20:00;6.30;;;4.27;;
9904;SDS011;4991;43.566;27.820;2023-04-24T08:22:27;10.47;;;4.60;;
9904;SDS011;4991;43.566;27.820;2023-04-24T08:24:53;10.53;;;4.80;;
9904;SDS011;4991;43.566;27.820;2023-04-24T08:27:19;5.87;;;3.87;;
9904;SDS011;4991;43.566;27.820;2023-04-24T08:29:45;6.90;;;3.60;;
9904;SDS011;4991;43.566;27.820;2023-04-24T08:32:10;11.80;;;4.93;;
9904;SDS011;4991;43.566;27.820;2023-04-24T08:34:36;5.37;;;4.00;;
9904;SDS011;4991;43.566;27.820;2023-04-24T08:37:02;5.30;;;4.17;;
9904;SDS011;4991;43.566;27.820;2023-04-24T08:39:28;7.30;;;4.50;;
9904;SDS011;4991;43.566;27.820;2023-04-24T08:41:54;12.60;;;3.90;;
9904;SDS011;4991;43.566;27.820;2023-04-24T08:44:21;7.53;;;3.83;;
9904;SDS011;4991;43.566;27.820;2023-04-24T08:46:50;5.97;;;3.80;;
9904;SDS011;4991;43.566;27.820;2023-04-24T08:49:17;6.90;;;4.13;;
9904;SDS011;4991;43.566;27.820;2023-04-24T08:51:43;5.87;;;3.63;;
9904;SDS011;4991;43.566;27.820;2023-04-24T08:54:11;13.10;;;4.57;;
9904;SDS011;4991;43.566;27.820;2023-04-24T08:56:37;4.37;;;3.60;;
9904;SDS011;4991;43.566;27.820;2023-04-24T08:59:06;5.90;;;3.60;;
9904;SDS011;4991;43.566;27.820;2023-04-24T09:01:32;7.70;;;4.27;;
9904;SDS011;4991;43.566;27.820;2023-04-24T09:04:04;7.80;;;4.13;;
9904;SDS011;4991;43.566;27.820;2023-04-24T09:06:31;3.93;;;3.47;;
9904;SDS011;4991;43.566;27.820;2023-04-24T09:09:01;5.23;;;4.00;;
9904;SDS011;4991;43.566;27.820;2023-04-24T09:11:29;8.37;;;3.57;;
9904;SDS011;4991;43.566;27.820;2023-04-24T09:13:56;7.70;;;3.80;;
9904;SDS011;4991;43.566;27.820;2023-04-24T09:16:22;6.27;;;3.73;;
9904;SDS011;4991;43.566;27.820;2023-04-24T09:18:49;8.30;;;3.80;;
9904;SDS011;4991;43.566;27.820;2023-04-24T09:21:15;7.67;;;4.50;;
9904;SDS011;4991;43.566;27.820;2023-04-24T09:23:41;6.50;;;3.50;;
9904;SDS011;4991;43.566;27.820;2023-04-24T09:26:07;8.17;;;3.67;;
9904;SDS011;4991;43.566;27.820;2023-04-24T09:28:38;7.27;;;3.70;;
9904;SDS011;4991;43.566;27.820;2023-04-24T09:31:09;7.80;;;3.70;;
9904;SDS011;4991;43.566;27.820;2023-04-24T09:33:52;10.17;;;4.10;;
9904;SDS011;4991;43.566;27.820;2023-04-24T09:39:08;6.70;;;3.50;;
9904;SDS011;4991;43.566;27.820;2023-04-24T09:46:44;5.90;;;3.45;;
9904;SDS011;4991;43.566;27.820;2023-04-24T09:49:14;7.80;;;3.90;;
9904;SDS011;4991;43.566;27.820;2023-04-24T09:51:41;15.70;;;4.53;;
9904;SDS011;4991;43.566;27.820;2023-04-24T09:54:13;10.32;;;4.13;;
9904;SDS011;4991;43.566;27.820;2023-04-24T09:56:44;6.03;;;3.20;;
9904;SDS011;4991;43.566;27.820;2023-04-24T09:59:16;12.93;;;4.03;;
9904;SDS011;4991;43.566;27.820;2023-04-24T10:01:44;10.07;;;4.00;;
9904;SDS011;4991;43.566;27.820;2023-04-24T10:06:47;9.32;;;3.78;;
9904;SDS011;4991;43.566;27.820;2023-04-24T10:09:14;8.80;;;3.53;;
9904;SDS011;4991;43.566;27.820;2023-04-24T10:11:45;8.00;;;3.85;;
9904;SDS011;4991;43.566;27.820;2023-04-24T10:14:20;7.75;;;3.63;;
9904;SDS011;4991;43.566;27.820;2023-04-24T10:16:47;7.55;;;3.05;;
9904;SDS011;4991;43.566;27.820;2023-04-24T10:19:13;10.98;;;4.30;;
9904;SDS011;4991;43.566;27.820;2023-04-24T10:21:40;5.97;;;3.58;;
9904;SDS011;4991;43.566;27.820;2023-04-24T10:24:08;7.80;;;4.15;;
9904;SDS011;4991;43.566;27.820;2023-04-24T10:26:35;13.10;;;4.57;;
9904;SDS011;4991;43.566;27.820;2023-04-24T10:29:02;8.30;;;4.20;;
9904;SDS011;4991;43.566;27.820;2023-04-24T10:31:31;7.00;;;3.88;;
9904;SDS011;4991;43.566;27.820;2023-04-24T10:33:58;7.30;;;3.55;;
9904;SDS011;4991;43.566;27.820;2023-04-24T10:36:26;5.70;;;3.58;;
9904;SDS011;4991;43.566;27.820;2023-04-24T10:38:54;7.22;;;3.10;;
9904;SDS011;4991;43.566;27.820;2023-04-24T10:41:22;6.90;;;3.38;;
9904;SDS011;4991;43.566;27.820;2023-04-24T10:44:10;6.20;;;3.47;;
9904;SDS011;4991;43.566;27.820;2023-04-24T10:46:37;4.20;;;3.22;;
9904;SDS011;4991;43.566;27.820;2023-04-24T10:49:07;6.10;;;3.58;;
9904;SDS011;4991;43.566;27.820;2023-04-24T10:51:46;6.82;;;3.30;;
9904;SDS011;4991;43.566;27.820;2023-04-24T10:54:25;9.43;;;7.43;;
9904;SDS011;4991;43.566;27.820;2023-04-24T10:56:51;8.98;;;6.45;;
9904;SDS011;4991;43.566;27.820;2023-04-24T10:59:27;8.27;;;3.40;;
9904;SDS011;4991;43.566;27.820;2023-04-24T11:01:53;5.55;;;3.50;;
9904;SDS011;4991;43.566;27.820;2023-04-24T11:04:29;7.78;;;3.53;;
9904;SDS011;4991;43.566;27.820;2023-04-24T11:07:06;7.93;;;3.13;;
9904;SDS011;4991;43.566;27.820;2023-04-24T11:09:33;8.82;;;3.63;;
9904;SDS011;4991;43.566;27.820;2023-04-24T11:12:08;6.32;;;3.13;;
9904;SDS011;4991;43.566;27.820;2023-04-24T11:14:59;5.13;;;2.67;;
9904;SDS011;4991;43.566;27.820;2023-04-24T11:17:33;6.97;;;3.28;;
9904;SDS011;4991;43.566;27.820;2023-04-24T11:20:05;9.77;;;3.25;;
9904;SDS011;4991;43.566;27.820;2023-04-24T11:22:33;5.82;;;3.00;;
9904;SDS011;4991;43.566;27.820;2023-04-24T11:25:01;8.85;;;4.15;;
9904;SDS011;4991;43.566;27.820;2023-04-24T11:27:29;8.30;;;3.35;;
9904;SDS011;4991;43.566;27.820;2023-04-24T11:32:26;6.28;;;3.10;;
9904;SDS011;4991;43.566;27.820;2023-04-24T11:34:58;7.45;;;3.00;;
9904;SDS011;4991;43.566;27.820;2023-04-24T11:37:27;10.57;;;3.35;;
9904;SDS011;4991;43.566;27.820;2023-04-24T11:39:58;7.38;;;3.15;;
9904;SDS011;4991;43.566;27.820;2023-04-24T11:42:24;10.75;;;3.53;;
9904;SDS011;4991;43.566;27.820;2023-04-24T11:44:53;3.65;;;2.65;;
9904;SDS011;4991;43.566;27.820;2023-04-24T11:47:31;6.80;;;3.30;;
9904;SDS011;4991;43.566;27.820;2023-04-24T11:49:59;6.22;;;3.53;;
9904;SDS011;4991;43.566;27.820;2023-04-24T11:52:25;6.03;;;3.25;;
9904;SDS011;4991;43.566;27.820;2023-04-24T11:54:52;8.38;;;3.42;;
9904;SDS011;4991;43.566;27.820;2023-04-24T11:57:21;8.40;;;3.58;;
9904;SDS011;4991;43.566;27.820;2023-04-24T11:59:49;8.38;;;2.80;;
9904;SDS011;4991;43.566;27.820;2023-04-24T12:02:24;8.27;;;2.90;;
9904;SDS011;4991;43.566;27.820;2023-04-24T12:04:52;4.90;;;3.20;;
9904;SDS011;4991;43.566;27.820;2023-04-24T12:07:18;8.23;;;4.28;;
9904;SDS011;4991;43.566;27.820;2023-04-24T12:09:45;12.00;;;3.33;;
9904;SDS011;4991;43.566;27.820;2023-04-24T12:12:13;5.57;;;3.25;;
9904;SDS011;4991;43.566;27.820;2023-04-24T12:17:17;4.22;;;2.97;;
9904;SDS011;4991;43.566;27.820;2023-04-24T12:19:45;3.63;;;2.53;;
9904;SDS011;4991;43.566;27.820;2023-04-24T12:22:13;6.88;;;3.63;;
9904;SDS011;4991;43.566;27.820;2023-04-24T12:24:58;5.88;;;2.80;;
9904;SDS011;4991;43.566;27.820;2023-04-24T12:27:29;5.85;;;2.90;;
9904;SDS011;4991;43.566;27.820;2023-04-24T12:29:56;6.05;;;3.28;;
9904;SDS011;4991;43.566;27.820;2023-04-24T12:32:23;7.53;;;3.20;;
9904;SDS011;4991;43.566;27.820;2023-04-24T12:34:50;7.05;;;2.95;;
9904;SDS011;4991;43.566;27.820;2023-04-24T12:37:17;6.35;;;3.00;;
9904;SDS011;4991;43.566;27.820;2023-04-24T12:39:58;5.57;;;3.10;;
9904;SDS011;4991;43.566;27.820;2023-04-24T12:42:28;5.43;;;3.10;;
9904;SDS011;4991;43.566;27.820;2023-04-24T12:45:02;6.13;;;2.85;;
9904;SDS011;4991;43.566;27.820;2023-04-24T12:47:30;9.07;;;3.30;;
9904;SDS011;4991;43.566;27.820;2023-04-24T12:49:57;7.47;;;3.58;;
9904;SDS011;4991;43.566;27.820;2023-04-24T12:52:23;9.68;;;3.65;;
9904;SDS011;4991;43.566;27.820;2023-04-24T12:54:52;5.45;;;3.38;;
9904;SDS011;4991;43.566;27.820;2023-04-24T12:57:20;8.82;;;3.63;;
9904;SDS011;4991;43.566;27.820;2023-04-24T12:59:46;12.15;;;3.80;;
9904;SDS011;4991;43.566;27.820;2023-04-24T13:02:11;8.18;;;3.70;;
9904;SDS011;4991;43.566;27.820;2023-04-24T13:04:37;6.53;;;3.22;;
9904;SDS011;4991;43.566;27.820;2023-04-24T13:07:03;5.50;;;3.20;;
9904;SDS011;4991;43.566;27.820;2023-04-24T13:09:30;9.55;;;3.28;;
9904;SDS011;4991;43.566;27.820;2023-04-24T13:11:56;9.05;;;3.60;;
9904;SDS011;4991;43.566;27.820;2023-04-24T13:14:22;5.70;;;3.00;;
9904;SDS011;4991;43.566;27.820;2023-04-24T13:16:48;6.10;;;3.47;;
9904;SDS011;4991;43.566;27.820;2023-04-24T13:19:14;7.93;;;3.50;;
9904;SDS011;4991;43.566;27.820;2023-04-24T13:21:40;6.40;;;3.13;;
9904;SDS011;4991;43.566;27.820;2023-04-24T13:24:06;7.75;;;3.63;;
9904;SDS011;4991;43.566;27.820;2023-04-24T13:26:33;5.03;;;3.10;;
9904;SDS011;4991;43.566;27.820;2023-04-24T13:28:59;6.40;;;3.17;;
9904;SDS011;4991;43.566;27.820;2023-04-24T13:31:24;5.28;;;2.92;;
9904;SDS011;4991;43.566;27.820;2023-04-24T13:33:50;11.85;;;3.58;;
9904;SDS011;4991;43.566;27.820;2023-04-24T13:36:16;5.28;;;3.20;;
9904;SDS011;4991;43.566;27.820;2023-04-24T13:38:43;5.90;;;3.10;;
9904;SDS011;4991;43.566;27.820;2023-04-24T13:41:09;5.55;;;3.22;;
9904;SDS011;4991;43.566;27.820;2023-04-24T13:43:35;6.75;;;3.42;;
9904;SDS011;4991;43.566;27.820;2023-04-24T13:46:01;3.75;;;2.70;;
9904;SDS011;4991;43.566;27.820;2023-04-24T13:48:28;9.63;;;3.50;;
9904;SDS011;4991;43.566;27.820;2023-04-24T13:50:55;7.25;;;3.90;;
9904;SDS011;4991;43.566;27.820;2023-04-24T13:53:20;4.03;;;2.90;;
9904;SDS011;4991;43.566;27.820;2023-04-24T13:55:47;7.28;;;3.13;;
9904;SDS011;4991;43.566;27.820;2023-04-24T13:58:13;5.10;;;3.90;;
9904;SDS011;4991;43.566;27.820;2023-04-24T14:00:38;8.35;;;3.65;;
9904;SDS011;4991;43.566;27.820;2023-04-24T14:03:04;7.50;;;3.10;;
9904;SDS011;4991;43.566;27.820;2023-04-24T14:05:30;9.48;;;3.70;;
9904;SDS011;4991;43.566;27.820;2023-04-24T14:07:55;5.90;;;3.20;;
9904;SDS011;4991;43.566;27.820;2023-04-24T14:10:21;6.30;;;2.92;;
9904;SDS011;4991;43.566;27.820;2023-04-24T14:12:47;13.98;;;3.55;;
9904;SDS011;4991;43.566;27.820;2023-04-24T14:15:13;7.07;;;3.45;;
9904;SDS011;4991;43.566;27.820;2023-04-24T14:17:39;7.57;;;3.53;;
9904;SDS011;4991;43.566;27.820;2023-04-24T14:20:05;5.13;;;3.28;;
9904;SDS011;4991;43.566;27.820;2023-04-24T14:22:32;6.13;;;2.97;;
9904;SDS011;4991;43.566;27.820;2023-04-24T14:24:58;6.40;;;3.20;;
9904;SDS011;4991;43.566;27.820;2023-04-24T14:27:24;10.45;;;2.80;;
9904;SDS011;4991;43.566;27.820;2023-04-24T14:29:50;5.63;;;3.25;;
9904;SDS011;4991;43.566;27.820;2023-04-24T14:32:15;7.53;;;5.10;;
9904;SDS011;4991;43.566;27.820;2023-04-24T14:34:41;4.87;;;3.43;;
9904;SDS011;4991;43.566;27.820;2023-04-24T14:37:07;7.15;;;3.92;;
9904;SDS011;4991;43.566;27.820;2023-04-24T14:39:32;5.77;;;3.03;;
9904;SDS011;4991;43.566;27.820;2023-04-24T14:41:58;13.33;;;3.50;;
9904;SDS011;4991;43.566;27.820;2023-04-24T14:44:24;10.07;;;3.73;;
9904;SDS011;4991;43.566;27.820;2023-04-24T14:46:49;6.30;;;3.00;;
9904;SDS011;4991;43.566;27.820;2023-04-24T14:49:16;7.20;;;3.10;;
9904;SDS011;4991;43.566;27.820;2023-04-24T14:51:41;8.80;;;3.03;;
9904;SDS011;4991;43.566;27.820;2023-04-24T14:54:08;7.78;;;3.65;;
9904;SDS011;4991;43.566;27.820;2023-04-24T14:56:33;10.30;;;4.32;;
9904;SDS011;4991;43.566;27.820;2023-04-24T14:58:59;9.98;;;4.50;;
9904;SDS011;4991;43.566;27.820;2023-04-24T15:01:25;6.93;;;4.57;;
9904;SDS011;4991;43.566;27.820;2023-04-24T15:03:51;13.27;;;4.13;;
9904;SDS011;4991;43.566;27.820;2023-04-24T15:06:17;7.43;;;3.28;;
9904;SDS011;4991;43.566;27.820;2023-04-24T15:08:42;8.52;;;3.17;;